Time;durP1;ratioP1;P1;durP2;ratioP2;P2;SDS_P1;SDS_P2;PMS_P1;PMS_P2;Temp;Humidity;BMP_temperature;BMP_pressure;BME280_temperature;BME280_humidity;BME280_pressure;Samples;Min_cycle;Max_cycle;Signal;HPM_P1;HPM_P2
2022/12/15 03:47:00;;;;;;;9.52;4.22;;;5.70;99.60;;;;;;5595754;22;89748;-70
2022/12/15 03:49:26;;;;;;;8.05;4.68;;;5.70;99.40;;;;;;4949942;28;88220;-70
2022/12/15 03:51:52;;;;;;;8.88;4.68;;;5.80;99.50;;;;;;4952796;28;86311;-70
2022/12/15 03:54:18;;;;;;;8.07;4.40;;;5.80;99.20;;;;;;4951177;28;86924;-70
2022/12/15 03:56:44;;;;;;;10.50;4.85;;;5.80;98.90;;;;;;4948931;28;88437;-70
2022/12/15 03:59:09;;;;;;;10.18;4.65;;;5.70;99.10;;;;;;4953226;28;86766;-70
2022/12/15 04:01:36;;;;;;;9.82;4.75;;;5.60;99.20;;;;;;4954002;28;86852;-70
2022/12/15 04:04:02;;;;;;;7.68;4.20;;;5.60;99.30;;;;;;4951035;28;88001;-70
2022/12/15 04:06:29;;;;;;;11.27;4.97;;;5.70;99.20;;;;;;4951624;28;87242;-70
2022/12/15 04:08:56;;;;;;;7.75;4.38;;;5.70;99.10;;;;;;4950539;28;86991;-70
2022/12/15 04:11:22;;;;;;;7.63;4.18;;;5.80;98.90;;;;;;4951900;28;87622;-71
2022/12/15 04:13:47;;;;;;;11.13;4.75;;;5.80;98.80;;;;;;4954014;28;87051;-71
2022/12/15 04:16:13;;;;;;;8.35;4.43;;;5.80;98.80;;;;;;4951789;28;86956;-70
2022/12/15 04:18:39;;;;;;;8.60;4.55;;;5.70;98.90;;;;;;4954492;28;87330;-70
2022/12/15 04:21:04;;;;;;;9.85;5.25;;;5.70;99.10;;;;;;4952774;28;86664;-71
2022/12/15 04:23:30;;;;;;;9.77;4.93;;;5.70;99.20;;;;;;4950024;28;86767;-71
2022/12/15 05:32:02;;;;;;;10.00;4.93;;;5.50;99.00;;;;;;4948376;28;87722;-71
2022/12/15 05:34:30;;;;;;;15.18;6.40;;;5.40;99.70;;;;;;4953540;28;87214;-70
2022/12/15 05:36:57;;;;;;;11.80;5.95;;;5.50;99.90;;;;;;4953662;28;86703;-71
2022/12/15 05:39:24;;;;;;;15.55;6.90;;;5.50;99.70;;;;;;4956414;28;86371;-71
2022/12/15 05:41:50;;;;;;;12.77;6.20;;;5.60;99.70;;;;;;4959439;28;87119;-71
2022/12/15 05:44:17;;;;;;;12.48;6.30;;;5.60;99.40;;;;;;4958583;28;86873;-71
2022/12/15 05:46:43;;;;;;;12.93;6.75;;;5.60;99.50;;;;;;4958607;28;86595;-71
2022/12/15 05:49:12;;;;;;;11.55;5.80;;;5.60;99.50;;;;;;4959270;28;85939;-70
2022/12/15 05:51:39;;;;;;;11.30;6.00;;;5.50;99.40;;;;;;4956234;28;86574;-71
2022/12/15 05:54:06;;;;;;;11.30;6.03;;;5.50;99.70;;;;;;4951341;28;86890;-70
2022/12/15 05:56:31;;;;;;;14.75;6.43;;;5.60;99.80;;;;;;4958832;28;87894;-70
2022/12/15 05:58:57;;;;;;;10.90;5.70;;;5.70;99.70;;;;;;4952092;28;86756;-71
2022/12/15 06:01:24;;;;;;;28.40;11.48;;;5.60;98.90;;;;;;4951332;28;88914;-71
2022/12/15 06:03:50;;;;;;;21.30;8.43;;;5.60;99.40;;;;;;4954490;28;87018;-73
2022/12/15 06:06:16;;;;;;;45.30;17.88;;;5.60;99.40;;;;;;4958615;28;86900;-76
2022/12/15 06:08:42;;;;;;;37.67;16.33;;;5.60;99.90;;;;;;4950444;28;86743;-72
2022/12/15 06:11:13;;;;;;;38.10;16.05;;;5.70;99.90;;;;;;4946048;28;88386;-72
2022/12/15 06:13:39;;;;;;;30.95;14.20;;;5.80;99.90;;;;;;4955231;28;86958;-72
2022/12/15 06:16:17;;;;;;;33.67;15.02;;;5.80;99.50;;;;;;4951596;28;87396;-72
2022/12/15 06:18:49;;;;;;;32.05;14.45;;;5.70;99.40;;;;;;4945687;28;86440;-72
2022/12/15 06:21:20;;;;;;;27.98;12.65;;;5.80;98.90;;;;;;4957211;28;88249;-73
2022/12/15 06:23:46;;;;;;;21.63;9.60;;;5.80;98.90;;;;;;4955444;28;86968;-72
2022/12/15 06:26:19;;;;;;;18.63;9.10;;;5.70;98.90;;;;;;4948302;28;87102;-72
2022/12/15 06:28:45;;;;;;;13.20;6.43;;;5.70;98.70;;;;;;4956043;28;87406;-72
2022/12/15 06:31:12;;;;;;;12.50;6.35;;;5.70;98.90;;;;;;4960304;28;86645;-72
2022/12/15 06:33:38;;;;;;;11.35;5.97;;;5.70;98.80;;;;;;4958675;28;86922;-72
2022/12/15 06:36:06;;;;;;;12.60;6.55;;;5.70;98.60;;;;;;4956968;28;86539;-72
2022/12/15 06:38:33;;;;;;;12.68;6.03;;;5.70;98.80;;;;;;4956266;28;85607;-72
2022/12/15 06:41:00;;;;;;;13.45;6.50;;;5.80;98.70;;;;;;4954713;28;86691;-72
2022/12/15 06:43:27;;;;;;;14.00;5.88;;;5.80;98.10;;;;;;4958716;28;86903;-72
2022/12/15 06:45:52;;;;;;;12.85;6.70;;;5.80;98.30;;;;;;4958180;28;87395;-72
2022/12/15 06:48:19;;;;;;;11.77;5.85;;;5.70;98.40;;;;;;4957590;28;89297;-72
2022/12/15 06:50:45;;;;;;;12.43;6.20;;;5.70;98.30;;;;;;4957482;28;86528;-72
2022/12/15 06:53:18;;;;;;;12.23;5.30;;;5.70;98.60;;;;;;4951700;28;86860;-72
2022/12/15 06:55:44;;;;;;;10.80;5.47;;;5.70;98.60;;;;;;4955319;28;86696;-72
2022/12/15 06:58:11;;;;;;;10.75;5.53;;;5.70;98.30;;;;;;4957930;28;86736;-72
2022/12/15 07:00:38;;;;;;;11.25;5.65;;;5.70;98.60;;;;;;4954535;28;86670;-72
2022/12/15 07:03:06;;;;;;;12.93;5.85;;;5.60;98.50;;;;;;4956503;28;86294;-72
2022/12/15 07:05:32;;;;;;;10.13;5.60;;;5.50;98.80;;;;;;4956220;28;86218;-72
2022/12/15 07:07:58;;;;;;;8.68;3.70;;;5.60;99.10;;;;;;4958161;28;86640;-72
2022/12/15 07:10:24;;;;;;;7.63;3.20;;;5.60;99.00;;;;;;4953087;28;88805;-72
2022/12/15 07:12:50;;;;;;;7.05;2.83;;;5.60;98.70;;;;;;4955857;28;88009;-72
2022/12/15 07:15:16;;;;;;;6.82;2.70;;;5.60;98.70;;;;;;4957696;28;86620;-72
2022/12/15 07:17:41;;;;;;;5.88;2.40;;;5.70;98.40;;;;;;4955934;28;86322;-72
2022/12/15 07:20:08;;;;;;;6.93;2.30;;;5.60;98.10;;;;;;4958961;28;86790;-72
2022/12/15 07:22:34;;;;;;;5.10;2.20;;;5.60;98.10;;;;;;4946184;28;86350;-72
2022/12/15 07:25:00;;;;;;;4.25;1.85;;;5.60;98.10;;;;;;4959396;28;86391;-72
2022/12/15 07:27:25;;;;;;;6.43;2.63;;;5.60;97.90;;;;;;4951388;28;85566;-72
2022/12/15 07:29:51;;;;;;;4.90;2.40;;;5.60;98.10;;;;;;4952215;28;86454;-72
2022/12/15 07:32:17;;;;;;;5.05;2.53;;;5.60;98.30;;;;;;4955344;28;86942;-72
2022/12/15 07:34:43;;;;;;;6.60;2.92;;;5.60;98.30;;;;;;4957694;28;87711;-72
2022/12/15 07:37:09;;;;;;;10.93;3.53;;;5.50;97.90;;;;;;4956616;28;86944;-72
2022/12/15 07:39:35;;;;;;;10.73;4.60;;;5.50;98.10;;;;;;4954975;28;87304;-72
2022/12/15 07:42:01;;;;;;;8.38;3.30;;;5.60;98.30;;;;;;4952080;28;87059;-72
2022/12/15 07:44:27;;;;;;;10.70;4.45;;;5.60;97.90;;;;;;4954126;28;86507;-72
2022/12/15 07:46:53;;;;;;;8.35;3.67;;;5.60;97.80;;;;;;4953679;28;86410;-72
2022/12/15 07:49:19;;;;;;;8.43;3.22;;;5.50;97.60;;;;;;4956857;28;87277;-72
2022/12/15 07:51:45;;;;;;;8.40;4.13;;;5.50;97.90;;;;;;4953069;28;87874;-72
2022/12/15 07:54:12;;;;;;;10.38;3.88;;;5.60;97.60;;;;;;4951273;28;86291;-72
2022/12/15 07:56:38;;;;;;;8.57;4.25;;;5.60;97.40;;;;;;4953591;28;86708;-72
2022/12/15 07:59:05;;;;;;;7.88;4.00;;;5.60;97.70;;;;;;4955966;28;88115;-72
2022/12/15 08:01:31;;;;;;;10.85;4.18;;;5.70;97.30;;;;;;4954724;28;87690;-72
2022/12/15 08:03:57;;;;;;;7.80;3.97;;;5.70;97.10;;;;;;4951665;28;86652;-72
2022/12/15 08:06:23;;;;;;;10.73;4.25;;;5.70;96.90;;;;;;4955312;28;86967;-72
2022/12/15 08:08:49;;;;;;;8.15;3.55;;;5.70;97.00;;;;;;4955254;28;87152;-72
2022/12/15 08:11:15;;;;;;;9.77;4.10;;;5.70;96.60;;;;;;4956716;28;86871;-72
2022/12/15 08:13:42;;;;;;;12.23;4.10;;;5.70;96.60;;;;;;4956359;28;86857;-72
2022/12/15 08:16:08;;;;;;;8.38;3.75;;;5.70;96.80;;;;;;4953989;28;86563;-72
2022/12/15 08:18:34;;;;;;;8.48;3.65;;;5.70;96.60;;;;;;4953318;28;88043;-72
2022/12/15 08:21:05;;;;;;;9.57;4.10;;;5.70;96.50;;;;;;4952710;28;86483;-72
2022/12/15 08:23:31;;;;;;;12.70;4.20;;;5.70;96.50;;;;;;4951373;28;87468;-72
2022/12/15 08:26:07;;;;;;;9.85;3.22;;;5.70;96.40;;;;;;4955661;28;86203;-72
2022/12/15 08:28:36;;;;;;;9.02;4.13;;;5.80;96.50;;;;;;4954985;28;87666;-72
2022/12/15 08:31:04;;;;;;;12.40;4.85;;;5.80;96.40;;;;;;4955843;28;87418;-72
2022/12/15 08:33:30;;;;;;;11.02;3.70;;;5.80;96.30;;;;;;4955498;28;86922;-72
2022/12/15 08:36:01;;;;;;;9.82;3.65;;;5.80;96.30;;;;;;4956166;28;87153;-72
2022/12/15 08:38:27;;;;;;;10.02;4.28;;;5.80;96.10;;;;;;4953787;28;86678;-72
2022/12/15 08:40:53;;;;;;;12.98;4.32;;;5.80;96.20;;;;;;4955373;28;87647;-72
2022/12/15 08:43:19;;;;;;;11.63;4.13;;;5.80;96.10;;;;;;4950021;28;86402;-72
2022/12/15 08:45:44;;;;;;;12.75;4.65;;;5.80;95.90;;;;;;4955896;28;86272;-72
2022/12/15 08:48:10;;;;;;;11.43;4.05;;;5.90;95.90;;;;;;4954511;28;87748;-72
2022/12/15 08:50:36;;;;;;;10.82;4.40;;;6.00;96.10;;;;;;4953633;28;87777;-72
2022/12/15 08:53:01;;;;;;;11.23;5.03;;;6.00;95.80;;;;;;4954264;28;86733;-72
2022/12/15 08:55:27;;;;;;;12.50;5.10;;;6.10;95.60;;;;;;4949923;28;87132;-72
2022/12/15 08:57:53;;;;;;;11.90;5.00;;;6.10;95.40;;;;;;4953993;28;86722;-72
2022/12/15 09:00:19;;;;;;;15.48;5.20;;;6.20;95.40;;;;;;4953728;28;86395;-72
2022/12/15 09:02:45;;;;;;;14.45;5.07;;;6.30;95.70;;;;;;4959362;28;86917;-72
2022/12/15 09:05:10;;;;;;;12.68;4.63;;;6.30;95.30;;;;;;4956300;28;85985;-72
2022/12/15 09:07:36;;;;;;;12.45;4.50;;;6.40;95.10;;;;;;4953316;28;87272;-72
2022/12/15 09:10:02;;;;;;;13.27;5.57;;;6.40;94.90;;;;;;4955280;28;86946;-72
2022/12/15 09:12:27;;;;;;;10.60;4.57;;;6.50;94.80;;;;;;4952765;28;88539;-72
2022/12/15 09:14:53;;;;;;;13.55;5.57;;;6.50;94.70;;;;;;4953648;28;86753;-72
2022/12/15 09:17:19;;;;;;;13.50;4.70;;;6.40;94.80;;;;;;4954374;28;87769;-72
2022/12/15 09:19:44;;;;;;;17.10;5.28;;;6.40;94.80;;;;;;4956745;28;87437;-72
2022/12/15 09:22:10;;;;;;;13.40;4.90;;;6.40;95.00;;;;;;4955573;28;87220;-72
2022/12/15 09:24:36;;;;;;;12.25;4.93;;;6.50;94.60;;;;;;4954236;28;87056;-72
2022/12/15 09:27:02;;;;;;;15.35;5.70;;;6.40;94.90;;;;;;4953794;28;87053;-72
2022/12/15 09:29:28;;;;;;;14.02;5.05;;;6.40;95.00;;;;;;4953819;28;86129;-72
2022/12/15 09:31:54;;;;;;;17.80;5.18;;;6.40;94.70;;;;;;4951705;28;86789;-72
2022/12/15 09:34:19;;;;;;;16.02;5.90;;;6.40;94.90;;;;;;4954634;28;86474;-72
2022/12/15 09:36:45;;;;;;;13.90;4.82;;;6.40;94.80;;;;;;4962847;28;88304;-72
2022/12/15 09:39:11;;;;;;;13.75;4.97;;;6.40;94.80;;;;;;4959134;28;87602;-72
2022/12/15 09:41:39;;;;;;;13.80;5.47;;;6.50;95.10;;;;;;4958580;28;86527;-72
2022/12/15 09:44:16;;;;;;;12.30;5.20;;;6.50;94.50;;;;;;4955242;28;86693;-72
2022/12/15 09:47:00;;;;;;;18.45;5.50;;;6.50;94.70;;;;;;4958054;28;88634;-72
2022/12/15 09:49:55;;;;;;;14.48;5.35;;;6.50;94.80;;;;;;4959192;28;87374;-72
2022/12/15 09:52:23;;;;;;;13.77;5.05;;;6.60;94.80;;;;;;4957628;28;86620;-72
2022/12/15 09:54:49;;;;;;;10.98;5.07;;;6.50;94.30;;;;;;4957891;28;86185;-72
2022/12/15 09:57:33;;;;;;;14.40;5.28;;;6.50;94.60;;;;;;4958141;28;87531;-72
2022/12/15 10:00:08;;;;;;;13.48;5.32;;;6.60;94.30;;;;;;4958009;28;87064;-72
2022/12/15 10:02:37;;;;;;;13.52;5.40;;;6.60;94.50;;;;;;4957053;28;87597;-72
2022/12/15 10:05:23;;;;;;;11.27;4.93;;;6.70;94.60;;;;;;4957081;28;87138;-72
2022/12/15 10:07:49;;;;;;;10.30;4.78;;;6.70;94.30;;;;;;4955704;28;87837;-72
2022/12/15 10:10:45;;;;;;;9.95;4.75;;;6.70;93.80;;;;;;4958176;28;87502;-72
2022/12/15 10:13:32;;;;;;;10.45;4.20;;;6.70;93.80;;;;;;4947102;28;86721;-72
2022/12/15 10:16:21;;;;;;;9.40;3.92;;;6.80;93.70;;;;;;4958420;28;86726;-72
2022/12/15 10:18:54;;;;;;;10.80;4.20;;;6.80;93.20;;;;;;4957805;28;87031;-72
2022/12/15 10:21:25;;;;;;;9.98;4.28;;;6.90;93.20;;;;;;4958235;28;87075;-72
2022/12/15 10:23:52;;;;;;;10.02;4.45;;;6.90;93.10;;;;;;4958006;28;86735;-72
2022/12/15 10:26:22;;;;;;;9.57;4.03;;;7.00;92.90;;;;;;4958974;28;87026;-72
2022/12/15 10:29:05;;;;;;;10.45;4.90;;;7.00;93.00;;;;;;4957575;28;88640;-72
2022/12/15 10:31:54;;;;;;;10.35;4.72;;;7.00;93.00;;;;;;4958116;28;87150;-72
2022/12/15 10:34:34;;;;;;;13.25;4.88;;;7.00;92.90;;;;;;4957020;28;86353;-72
2022/12/15 10:37:00;;;;;;;12.55;4.68;;;7.00;93.00;;;;;;4953745;28;86644;-72
2022/12/15 10:39:38;;;;;;;12.02;4.72;;;6.90;93.20;;;;;;4957968;28;87168;-72
2022/12/15 10:42:20;;;;;;;15.77;5.35;;;6.90;93.00;;;;;;4955517;28;86817;-73
2022/12/15 10:44:51;;;;;;;14.13;5.90;;;6.80;93.10;;;;;;4962878;28;86664;-72
2022/12/15 10:47:22;;;;;;;12.98;5.10;;;6.80;93.50;;;;;;4951514;28;85994;-72
2022/12/15 10:49:48;;;;;;;13.25;5.45;;;6.90;93.30;;;;;;4952768;28;86750;-72
2022/12/15 10:52:21;;;;;;;14.82;5.57;;;6.90;93.20;;;;;;4956563;28;87043;-72
2022/12/15 10:54:49;;;;;;;11.25;5.10;;;7.00;92.90;;;;;;4944656;28;87201;-72
2022/12/15 10:57:29;;;;;;;11.00;5.35;;;6.90;93.10;;;;;;4948626;28;87404;-72
2022/12/15 11:00:15;;;;;;;10.50;4.75;;;6.80;92.70;;;;;;4948411;28;86523;-72
2022/12/15 11:02:41;;;;;;;9.27;4.32;;;6.80;92.70;;;;;;4941933;28;86595;-72
2022/12/15 11:05:14;;;;;;;10.13;4.55;;;6.80;92.90;;;;;;4950903;28;87085;-72
2022/12/15 11:07:41;;;;;;;11.70;4.38;;;6.80;92.70;;;;;;4958331;28;86426;-72
2022/12/15 11:10:22;;;;;;;10.32;4.57;;;6.70;93.20;;;;;;4947406;28;87385;-72
2022/12/15 11:13:09;;;;;;;8.93;4.60;;;6.70;92.90;;;;;;4957400;28;87132;-72
2022/12/15 11:15:39;;;;;;;9.57;5.00;;;6.80;92.80;;;;;;4951218;28;87106;-72
2022/12/15 11:18:28;;;;;;;14.10;5.15;;;6.80;92.90;;;;;;4959561;28;86996;-72
2022/12/15 11:21:25;;;;;;;14.05;5.18;;;6.80;93.00;;;;;;4956887;28;88119;-72
2022/12/15 11:23:51;;;;;;;10.48;4.95;;;6.70;92.70;;;;;;4927475;28;87780;-73
2022/12/15 11:26:42;;;;;;;10.80;5.03;;;6.80;92.80;;;;;;4952177;28;86702;-73
2022/12/15 11:29:26;;;;;;;11.45;5.32;;;6.80;92.70;;;;;;4946439;28;87052;-72
2022/12/15 11:31:53;;;;;;;10.15;5.43;;;6.70;92.70;;;;;;4948130;28;87317;-72
2022/12/15 11:34:32;;;;;;;11.60;5.65;;;6.60;92.80;;;;;;4949251;28;86710;-73
2022/12/15 11:37:39;;;;;;;11.65;5.97;;;6.60;93.00;;;;;;4951089;28;87050;-73
2022/12/15 11:40:32;;;;;;;13.48;5.93;;;6.60;93.20;;;;;;4849881;28;87932;-73
2022/12/15 11:43:15;;;;;;;16.80;7.72;;;6.50;93.20;;;;;;4946332;28;88293;-72
2022/12/15 11:46:00;;;;;;;13.88;8.13;;;6.40;93.30;;;;;;4949771;28;86562;-72
2022/12/15 11:48:41;;;;;;;14.88;7.20;;;6.40;93.40;;;;;;4947660;28;87374;-72
2022/12/15 11:51:19;;;;;;;13.60;7.20;;;6.30;93.60;;;;;;4948492;28;86534;-72
2022/12/15 11:53:57;;;;;;;16.90;8.13;;;6.30;93.70;;;;;;4950411;28;89704;-72
2022/12/15 11:56:34;;;;;;;12.35;6.35;;;6.20;93.90;;;;;;4948469;28;86995;-73
2022/12/15 11:59:53;;;;;;;12.48;6.85;;;6.30;93.90;;;;;;4946279;28;86877;-72
2022/12/15 12:02:28;;;;;;;14.00;6.78;;;6.40;93.50;;;;;;4867609;28;86423;-72
2022/12/15 12:05:21;;;;;;;15.63;7.40;;;6.40;93.50;;;;;;4944997;28;86756;-73
2022/12/15 12:08:31;;;;;;;13.95;6.72;;;6.40;93.70;;;;;;4950826;28;86313;-73
2022/12/15 12:11:11;;;;;;;19.50;6.95;;;6.40;93.60;;;;;;4949874;28;86489;-72
2022/12/15 12:13:36;;;;;;;11.93;6.53;;;6.40;93.50;;;;;;4945369;28;87899;-73
2022/12/15 12:16:17;;;;;;;14.07;7.13;;;6.40;93.50;;;;;;4947190;28;88758;-72
2022/12/15 12:18:55;;;;;;;13.15;6.80;;;6.40;93.40;;;;;;4947737;28;87142;-72
2022/12/15 12:21:32;;;;;;;13.20;7.15;;;6.40;93.50;;;;;;4954192;28;87146;-73
2022/12/15 12:24:16;;;;;;;13.98;7.43;;;6.40;93.50;;;;;;4951534;28;86915;-72
2022/12/15 12:26:57;;;;;;;12.00;6.97;;;6.30;93.40;;;;;;4951759;28;87232;-72
2022/12/15 12:29:29;;;;;;;16.48;8.38;;;6.30;93.50;;;;;;4948799;28;87679;-72
2022/12/15 12:32:14;;;;;;;17.83;7.90;;;6.30;93.70;;;;;;4953272;28;86554;-72
2022/12/15 12:35:14;;;;;;;18.60;8.68;;;6.20;93.40;;;;;;4951605;28;85848;-72
2022/12/15 12:37:50;;;;;;;15.27;8.05;;;6.20;93.90;;;;;;4952348;28;86590;-72
2022/12/15 12:40:35;;;;;;;14.20;8.00;;;6.10;93.90;;;;;;4949372;28;86890;-72
2022/12/15 12:43:01;;;;;;;18.52;8.35;;;6.10;93.90;;;;;;4951102;28;89293;-72
2022/12/15 12:45:33;;;;;;;14.63;7.80;;;6.00;94.10;;;;;;4946542;28;86876;-72
2022/12/15 12:48:06;;;;;;;16.02;7.70;;;6.00;94.00;;;;;;4954800;28;86592;-72
2022/12/15 12:50:33;;;;;;;15.10;7.30;;;5.90;94.20;;;;;;4954382;28;86426;-72
2022/12/15 12:53:01;;;;;;;15.05;8.02;;;6.00;94.30;;;;;;4954446;28;86607;-72
2022/12/15 12:55:41;;;;;;;13.88;7.90;;;5.90;94.10;;;;;;4950575;28;87117;-72
2022/12/15 12:58:35;;;;;;;16.23;8.07;;;6.00;94.10;;;;;;4952951;28;86773;-73
2022/12/15 13:01:11;;;;;;;17.65;7.85;;;6.00;94.30;;;;;;4932153;28;89524;-72
2022/12/15 13:03:42;;;;;;;13.02;7.15;;;6.00;94.20;;;;;;4949562;28;86944;-72
2022/12/15 13:06:41;;;;;;;16.60;7.82;;;6.00;94.30;;;;;;4950877;28;88082;-72
2022/12/15 13:09:16;;;;;;;16.42;7.55;;;6.00;94.30;;;;;;4951140;28;88117;-72
2022/12/15 13:11:47;;;;;;;14.20;8.05;;;6.00;94.20;;;;;;4945899;28;88550;-72
2022/12/15 13:14:16;;;;;;;16.13;7.40;;;5.90;94.00;;;;;;4952207;28;86613;-71
2022/12/15 13:16:44;;;;;;;16.77;8.23;;;5.80;94.20;;;;;;4954159;28;86997;-72
2022/12/15 13:19:11;;;;;;;18.13;8.02;;;5.80;94.40;;;;;;4957411;28;87800;-72
2022/12/15 13:21:43;;;;;;;19.40;8.57;;;5.80;94.70;;;;;;4955924;28;86770;-72
2022/12/15 13:24:40;;;;;;;15.27;7.85;;;5.80;94.70;;;;;;4955053;28;87593;-72
2022/12/15 13:27:08;;;;;;;16.42;8.27;;;5.90;94.40;;;;;;4950996;28;86448;-72
2022/12/15 13:29:54;;;;;;;15.18;8.27;;;6.00;94.20;;;;;;4954786;28;86720;-72
2022/12/15 13:32:33;;;;;;;18.45;7.88;;;6.00;94.10;;;;;;4954182;28;87021;-72
2022/12/15 13:35:25;;;;;;;18.98;9.13;;;5.90;94.20;;;;;;4964081;28;87820;-72
2022/12/15 13:37:55;;;;;;;19.73;9.07;;;5.90;94.40;;;;;;4956488;28;86406;-72
2022/12/15 13:40:24;;;;;;;17.25;9.00;;;5.90;94.40;;;;;;4954795;28;86494;-72
2022/12/15 13:43:25;;;;;;;19.88;9.18;;;5.90;94.30;;;;;;4950770;28;87504;-72
2022/12/15 13:45:54;;;;;;;18.95;9.05;;;5.90;94.20;;;;;;4924873;28;87222;-72
2022/12/15 13:48:29;;;;;;;22.50;10.30;;;5.80;94.50;;;;;;4956843;28;86704;-72
2022/12/15 13:51:05;;;;;;;22.90;10.45;;;5.80;94.60;;;;;;4957585;28;86943;-72
2022/12/15 13:53:38;;;;;;;18.73;8.88;;;5.80;94.70;;;;;;4956812;28;87036;-72
2022/12/15 13:56:09;;;;;;;18.20;8.80;;;5.70;94.80;;;;;;4956594;28;86659;-72
2022/12/15 13:58:52;;;;;;;17.63;8.93;;;5.70;94.90;;;;;;4958412;28;86997;-72
2022/12/15 14:01:24;;;;;;;;;;;5.80;94.60;;;;;;4955258;28;87996;-72
2022/12/15 14:03:57;;;;;;;21.55;9.00;;;5.80;94.60;;;;;;4949374;28;86750;-73
2022/12/15 14:06:23;;;;;;;19.58;8.48;;;5.80;94.80;;;;;;4956604;28;86756;-72
2022/12/15 14:08:50;;;;;;;18.35;8.85;;;5.70;94.70;;;;;;4960215;28;86716;-72
2022/12/15 14:11:23;;;;;;;19.63;9.70;;;5.70;94.70;;;;;;4952325;28;86838;-72
2022/12/15 14:13:49;;;;;;;19.63;9.35;;;5.70;94.90;;;;;;4956642;28;86960;-72
2022/12/15 14:16:19;;;;;;;20.25;9.65;;;5.70;94.90;;;;;;4955170;28;87820;-72
2022/12/15 14:19:01;;;;;;;;;;;5.60;95.00;;;;;;4957012;28;86250;-72
2022/12/15 14:21:29;;;;;;;22.05;9.82;;;5.70;95.10;;;;;;4954009;28;86975;-72
2022/12/15 14:23:56;;;;;;;18.10;9.50;;;5.60;95.20;;;;;;4959540;28;87369;-73
2022/12/15 14:26:29;;;;;;;19.60;10.23;;;5.70;95.30;;;;;;4958826;28;87562;-73
2022/12/15 14:29:00;;;;;;;20.92;9.82;;;5.70;95.10;;;;;;4957361;28;86949;-72
2022/12/15 14:31:26;;;;;;;21.52;9.52;;;5.70;95.20;;;;;;4958130;28;87379;-72
2022/12/15 14:34:05;;;;;;;20.08;9.55;;;5.60;95.10;;;;;;4953929;28;86321;-72
2022/12/15 14:36:31;;;;;;;19.73;9.70;;;5.60;95.30;;;;;;4952555;28;86479;-72
2022/12/15 14:39:04;;;;;;;18.77;8.68;;;5.60;95.40;;;;;;4957833;28;86812;-72
2022/12/15 14:41:42;;;;;;;18.85;9.55;;;5.60;95.50;;;;;;4954641;28;87162;-72
2022/12/15 14:44:19;;;;;;;19.98;9.15;;;5.70;95.50;;;;;;4958748;28;86405;-72
2022/12/15 14:46:46;;;;;;;;;;;5.60;95.40;;;;;;4957863;28;86816;-72
2022/12/15 14:49:19;;;;;;;20.25;9.20;;;5.60;95.40;;;;;;4959331;28;86291;-73
2022/12/15 14:51:56;;;;;;;18.48;9.15;;;5.60;95.30;;;;;;4954179;28;89305;-72
2022/12/15 14:54:42;;;;;;;;;;;5.50;95.50;;;;;;4953405;28;88038;-73
2022/12/15 14:57:07;;;;;;;21.15;9.23;;;5.50;95.60;;;;;;4901528;28;87621;-72
2022/12/15 14:59:34;;;;;;;19.60;9.27;;;5.50;95.60;;;;;;4954480;28;86577;-72
2022/12/15 15:02:23;;;;;;;22.42;10.50;;;5.40;95.80;;;;;;4955540;28;87310;-72
2022/12/15 15:05:04;;;;;;;21.65;10.23;;;5.40;96.00;;;;;;4950551;28;87030;-72
2022/12/15 15:07:44;;;;;;;21.38;9.70;;;5.50;96.00;;;;;;4954017;28;86758;-72
2022/12/15 15:10:23;;;;;;;17.45;8.85;;;5.50;96.00;;;;;;4954372;28;86008;-72
2022/12/15 15:12:51;;;;;;;20.73;9.27;;;5.50;95.90;;;;;;4953362;28;87190;-72
2022/12/15 15:15:19;;;;;;;21.50;10.68;;;5.50;95.90;;;;;;4947045;28;87444;-72
2022/12/15 15:17:52;;;;;;;20.67;9.68;;;5.40;96.20;;;;;;4951948;28;87574;-72
2022/12/15 15:20:30;;;;;;;21.88;9.57;;;5.50;96.20;;;;;;4952772;28;86705;-72
2022/12/15 15:23:10;;;;;;;22.13;9.95;;;5.50;96.00;;;;;;4955448;28;87263;-72
2022/12/15 15:25:47;;;;;;;22.80;11.07;;;5.50;96.00;;;;;;4952078;28;86647;-72
2022/12/15 15:28:18;;;;;;;23.17;9.73;;;5.50;96.00;;;;;;4952328;28;86781;-72
2022/12/15 15:30:49;;;;;;;20.60;10.57;;;5.50;96.10;;;;;;4955060;28;87006;-72
2022/12/15 15:33:16;;;;;;;23.13;10.20;;;5.40;96.40;;;;;;4945112;28;87027;-72
2022/12/15 15:35:43;;;;;;;21.45;10.60;;;5.40;96.40;;;;;;4953895;28;87873;-72
2022/12/15 15:38:14;;;;;;;21.90;11.23;;;5.40;96.50;;;;;;4950445;28;86782;-72
2022/12/15 15:40:40;;;;;;;22.00;10.57;;;5.40;96.30;;;;;;4952686;28;86972;-72
2022/12/15 15:43:11;;;;;;;25.20;11.18;;;5.50;96.20;;;;;;4949500;28;88198;-72
2022/12/15 15:45:38;;;;;;;23.45;11.30;;;5.50;96.30;;;;;;4946199;28;87182;-72
2022/12/15 15:48:04;;;;;;;25.50;11.85;;;5.50;96.20;;;;;;4944070;28;86761;-72
2022/12/15 15:50:31;;;;;;;25.08;11.63;;;5.50;96.10;;;;;;4949236;28;86873;-72
2022/12/15 15:52:57;;;;;;;25.92;11.00;;;5.50;96.50;;;;;;4954315;28;86742;-72
2022/12/15 15:55:32;;;;;;;23.15;11.77;;;5.50;96.40;;;;;;4954441;28;87012;-72
2022/12/15 15:57:58;;;;;;;27.85;12.35;;;5.60;96.30;;;;;;4954322;28;87519;-72
2022/12/15 16:00:24;;;;;;;27.50;12.88;;;5.60;96.70;;;;;;4950764;28;85563;-72
2022/12/15 16:02:50;;;;;;;35.42;14.85;;;5.50;96.40;;;;;;4952687;28;87272;-72
2022/12/15 16:05:16;;;;;;;33.70;13.98;;;5.60;96.50;;;;;;4954111;28;86508;-72
2022/12/15 16:07:44;;;;;;;40.70;14.85;;;5.60;96.20;;;;;;4948013;28;88808;-72
2022/12/15 16:10:16;;;;;;;38.88;16.73;;;5.60;96.00;;;;;;4947331;28;86865;-72
2022/12/15 16:12:51;;;;;;;34.15;14.57;;;5.60;95.90;;;;;;4945436;28;87399;-72
2022/12/15 16:15:25;;;;;;;30.08;12.65;;;5.60;95.90;;;;;;4943783;28;86825;-72
2022/12/15 16:17:51;;;;;;;31.10;12.38;;;5.60;95.80;;;;;;4948299;28;86700;-72
2022/12/15 16:20:19;;;;;;;27.85;12.55;;;5.60;95.90;;;;;;4942862;28;87003;-72
2022/12/15 16:22:54;;;;;;;24.17;12.18;;;5.50;95.80;;;;;;4952384;28;86327;-72
2022/12/15 16:25:35;;;;;;;35.10;13.38;;;5.50;95.80;;;;;;4956549;28;86247;-71
2022/12/15 16:28:01;;;;;;;29.13;13.88;;;5.50;95.40;;;;;;4950776;28;86879;-72
2022/12/15 16:30:28;;;;;;;32.67;14.63;;;5.50;95.20;;;;;;4956542;28;87052;-71
2022/12/15 16:32:54;;;;;;;32.25;14.23;;;5.50;95.30;;;;;;4955689;28;88571;-72
2022/12/15 16:35:23;;;;;;;30.23;14.00;;;5.50;95.20;;;;;;4956511;28;87183;-72
2022/12/15 16:37:49;;;;;;;28.05;13.27;;;5.50;95.30;;;;;;4953287;28;86311;-71
2022/12/15 16:40:25;;;;;;;28.38;13.55;;;5.40;95.20;;;;;;4956711;28;86801;-72
2022/12/15 16:42:57;;;;;;;32.53;13.60;;;5.40;95.10;;;;;;4957708;28;87251;-71
2022/12/15 16:45:25;;;;;;;28.80;13.70;;;5.30;95.20;;;;;;4959317;28;86920;-71
2022/12/15 16:47:51;;;;;;;29.08;13.32;;;5.20;95.20;;;;;;4954014;28;86546;-71
2022/12/15 16:50:20;;;;;;;32.63;14.27;;;5.30;95.60;;;;;;4951804;28;86199;-72
2022/12/15 16:52:48;;;;;;;30.88;13.45;;;5.30;95.30;;;;;;4957956;28;86638;-72
2022/12/15 16:55:21;;;;;;;32.13;13.75;;;5.20;95.00;;;;;;4954677;28;87086;-72
2022/12/15 16:57:47;;;;;;;30.92;13.90;;;5.10;95.10;;;;;;4949956;28;87906;-72
2022/12/15 17:00:19;;;;;;;29.48;13.70;;;5.00;95.30;;;;;;4959830;28;86532;-72
2022/12/15 17:02:45;;;;;;;31.73;14.27;;;5.00;95.50;;;;;;4953648;28;87288;-72
2022/12/15 17:05:11;;;;;;;34.65;14.68;;;4.90;95.60;;;;;;4958203;28;86782;-70
2022/12/15 17:07:37;;;;;;;32.70;14.32;;;4.90;95.80;;;;;;4950967;28;86848;-71
2022/12/15 17:10:04;;;;;;;32.17;14.23;;;4.90;95.80;;;;;;4953282;28;86700;-70
2022/12/15 17:12:29;;;;;;;33.88;14.27;;;4.90;95.80;;;;;;4952850;28;87082;-70
2022/12/15 17:14:56;;;;;;;32.13;14.02;;;4.90;95.70;;;;;;4965220;28;86318;-70
2022/12/15 17:17:22;;;;;;;33.10;14.40;;;4.90;95.70;;;;;;4956801;28;88599;-70
2022/12/15 17:19:49;;;;;;;31.27;14.25;;;4.90;95.70;;;;;;4957650;28;87110;-70
2022/12/15 17:22:14;;;;;;;33.33;14.93;;;4.90;95.80;;;;;;4955770;28;88324;-70
2022/12/15 17:24:42;;;;;;;38.65;16.00;;;4.90;96.10;;;;;;4958368;28;87210;-71
2022/12/15 17:27:18;;;;;;;36.28;16.15;;;4.90;96.30;;;;;;4955298;28;86271;-70
2022/12/15 17:29:44;;;;;;;37.15;15.57;;;4.90;96.30;;;;;;4957131;28;87150;-70
2022/12/15 17:32:11;;;;;;;38.97;16.83;;;4.80;96.50;;;;;;4957676;28;87193;-69
2022/12/15 17:34:37;;;;;;;39.58;16.73;;;4.80;96.30;;;;;;4956149;28;87041;-70
2022/12/15 17:37:05;;;;;;;39.47;17.25;;;4.70;96.60;;;;;;4952830;28;86863;-70
2022/12/15 17:39:33;;;;;;;41.63;17.98;;;4.80;96.70;;;;;;4957402;28;86024;-70
2022/12/15 17:41:59;;;;;;;44.35;18.20;;;4.70;96.30;;;;;;4954622;28;86776;-70
2022/12/15 17:44:27;;;;;;;37.65;16.75;;;4.70;96.50;;;;;;4958324;28;87099;-70
2022/12/15 17:46:52;;;;;;;42.38;17.42;;;4.60;96.70;;;;;;4955348;28;87603;-69
2022/12/15 17:49:19;;;;;;;38.17;16.75;;;4.60;97.00;;;;;;4961359;28;86357;-70
2022/12/15 17:51:46;;;;;;;37.10;17.13;;;4.70;96.70;;;;;;4954754;28;88421;-69
2022/12/15 17:54:14;;;;;;;34.88;15.90;;;4.70;96.60;;;;;;4953715;28;86806;-70
2022/12/15 17:56:48;;;;;;;38.80;17.50;;;4.70;96.50;;;;;;4951564;28;86900;-70
2022/12/15 17:59:16;;;;;;;35.28;15.57;;;4.70;96.70;;;;;;4957122;28;86544;-70
2022/12/15 18:01:42;;;;;;;39.25;17.48;;;4.60;96.50;;;;;;4952828;28;87613;-70